sensor_id;sensor_type;location;lat;lon;timestamp;P1;durP1;ratioP1;P2;durP2;ratioP2
32786;SDS011;19139;49.372;8.580;2023-12-28T00:02:09;3.10;;;2.13;;
32786;SDS011;19139;49.372;8.580;2023-12-28T00:04:35;2.33;;;2.10;;
32786;SDS011;19139;49.372;8.580;2023-12-28T00:07:02;2.87;;;2.03;;
32786;SDS011;19139;49.372;8.580;2023-12-28T00:09:30;2.83;;;2.10;;
32786;SDS011;19139;49.372;8.580;2023-12-28T00:11:56;2.33;;;2.10;;
32786;SDS011;19139;49.372;8.580;2023-12-28T00:14:24;2.83;;;1.90;;
32786;SDS011;19139;49.372;8.580;2023-12-28T00:16:50;2.40;;;1.90;;
32786;SDS011;19139;49.372;8.580;2023-12-28T00:19:17;2.20;;;2.00;;
32786;SDS011;19139;49.372;8.580;2023-12-28T00:21:45;1.70;;;1.60;;
32786;SDS011;19139;49.372;8.580;2023-12-28T00:24:13;2.27;;;2.00;;
32786;SDS011;19139;49.372;8.580;2023-12-28T00:26:41;2.80;;;2.23;;
32786;SDS011;19139;49.372;8.580;2023-12-28T00:29:08;1.90;;;1.70;;
32786;SDS011;19139;49.372;8.580;2023-12-28T00:31:35;3.03;;;1.90;;
32786;SDS011;19139;49.372;8.580;2023-12-28T00:34:01;2.80;;;2.00;;
32786;SDS011;19139;49.372;8.580;2023-12-28T00:36:28;2.40;;;2.20;;
32786;SDS011;19139;49.372;8.580;2023-12-28T00:38:55;2.27;;;1.83;;
32786;SDS011;19139;49.372;8.580;2023-12-28T00:41:22;2.63;;;1.90;;
32786;SDS011;19139;49.372;8.580;2023-12-28T00:43:48;2.47;;;2.20;;
32786;SDS011;19139;49.372;8.580;2023-12-28T00:46:15;2.03;;;1.73;;
32786;SDS011;19139;49.372;8.580;2023-12-28T00:48:43;2.10;;;1.90;;
32786;SDS011;19139;49.372;8.580;2023-12-28T00:51:10;2.13;;;1.93;;
32786;SDS011;19139;49.372;8.580;2023-12-28T00:53:37;2.90;;;1.90;;
32786;SDS011;19139;49.372;8.580;2023-12-28T00:56:03;2.23;;;2.03;;
32786;SDS011;19139;49.372;8.580;2023-12-28T00:58:30;2.10;;;1.90;;
32786;SDS011;19139;49.372;8.580;2023-12-28T01:00:57;2.73;;;1.87;;
32786;SDS011;19139;49.372;8.580;2023-12-28T01:03:24;2.23;;;1.87;;
32786;SDS011;19139;49.372;8.580;2023-12-28T01:05:51;2.63;;;2.33;;
32786;SDS011;19139;49.372;8.580;2023-12-28T01:08:19;3.30;;;2.10;;
32786;SDS011;19139;49.372;8.580;2023-12-28T01:10:45;2.17;;;1.90;;
32786;SDS011;19139;49.372;8.580;2023-12-28T01:13:12;3.20;;;1.97;;
32786;SDS011;19139;49.372;8.580;2023-12-28T01:15:39;3.13;;;2.73;;
32786;SDS011;19139;49.372;8.580;2023-12-28T01:18:05;2.73;;;2.00;;
32786;SDS011;19139;49.372;8.580;2023-12-28T01:20:33;3.30;;;2.10;;
32786;SDS011;19139;49.372;8.580;2023-12-28T01:23:01;2.70;;;2.20;;
32786;SDS011;19139;49.372;8.580;2023-12-28T01:25:28;2.10;;;1.90;;
32786;SDS011;19139;49.372;8.580;2023-12-28T01:27:55;2.03;;;1.60;;
32786;SDS011;19139;49.372;8.580;2023-12-28T01:30:22;3.40;;;1.97;;
32786;SDS011;19139;49.372;8.580;2023-12-28T01:32:49;2.00;;;1.70;;
32786;SDS011;19139;49.372;8.580;2023-12-28T01:35:15;2.07;;;1.77;;
32786;SDS011;19139;49.372;8.580;2023-12-28T01:37:42;2.30;;;2.00;;
32786;SDS011;19139;49.372;8.580;2023-12-28T01:40:09;2.20;;;2.00;;
32786;SDS011;19139;49.372;8.580;2023-12-28T01:42:36;1.80;;;1.60;;
32786;SDS011;19139;49.372;8.580;2023-12-28T01:45:03;1.80;;;1.70;;
32786;SDS011;19139;49.372;8.580;2023-12-28T01:47:30;2.57;;;2.20;;
32786;SDS011;19139;49.372;8.580;2023-12-28T01:49:57;2.30;;;1.77;;
32786;SDS011;19139;49.372;8.580;2023-12-28T01:52:26;2.00;;;1.73;;
32786;SDS011;19139;49.372;8.580;2023-12-28T01:54:54;2.23;;;1.90;;
32786;SDS011;19139;49.372;8.580;2023-12-28T01:57:21;2.30;;;1.90;;
32786;SDS011;19139;49.372;8.580;2023-12-28T01:59:48;3.23;;;1.97;;
32786;SDS011;19139;49.372;8.580;2023-12-28T02:02:16;2.97;;;2.13;;
32786;SDS011;19139;49.372;8.580;2023-12-28T02:04:43;2.43;;;2.23;;
32786;SDS011;19139;49.372;8.580;2023-12-28T02:07:10;2.30;;;2.10;;
32786;SDS011;19139;49.372;8.580;2023-12-28T02:09:39;2.13;;;1.80;;
32786;SDS011;19139;49.372;8.580;2023-12-28T02:12:06;3.40;;;2.20;;
32786;SDS011;19139;49.372;8.580;2023-12-28T02:14:32;2.10;;;1.90;;
32786;SDS011;19139;49.372;8.580;2023-12-28T02:17:43;2.00;;;1.80;;
32786;SDS011;19139;49.372;8.580;2023-12-28T02:19:54;3.03;;;1.97;;
32786;SDS011;19139;49.372;8.580;2023-12-28T02:22:23;2.30;;;1.67;;
32786;SDS011;19139;49.372;8.580;2023-12-28T02:24:56;2.40;;;1.97;;
32786;SDS011;19139;49.372;8.580;2023-12-28T02:27:33;2.13;;;2.00;;
32786;SDS011;19139;49.372;8.580;2023-12-28T02:30:09;2.13;;;1.93;;
32786;SDS011;19139;49.372;8.580;2023-12-28T02:35:39;2.17;;;1.87;;
32786;SDS011;19139;49.372;8.580;2023-12-28T02:38:09;2.07;;;1.83;;
32786;SDS011;19139;49.372;8.580;2023-12-28T02:40:38;2.30;;;1.77;;
32786;SDS011;19139;49.372;8.580;2023-12-28T02:43:06;2.53;;;1.67;;
32786;SDS011;19139;49.372;8.580;2023-12-28T02:45:34;2.53;;;1.80;;
32786;SDS011;19139;49.372;8.580;2023-12-28T02:48:02;2.10;;;1.50;;
32786;SDS011;19139;49.372;8.580;2023-12-28T02:50:30;2.33;;;2.07;;
32786;SDS011;19139;49.372;8.580;2023-12-28T02:52:57;2.03;;;1.83;;
32786;SDS011;19139;49.372;8.580;2023-12-28T02:55:24;2.60;;;1.87;;
32786;SDS011;19139;49.372;8.580;2023-12-28T02:57:51;1.50;;;1.40;;
32786;SDS011;19139;49.372;8.580;2023-12-28T03:00:26;1.73;;;1.30;;
32786;SDS011;19139;49.372;8.580;2023-12-28T03:02:53;2.53;;;2.30;;
32786;SDS011;19139;49.372;8.580;2023-12-28T03:05:20;2.13;;;1.77;;
32786;SDS011;19139;49.372;8.580;2023-12-28T03:07:47;1.93;;;1.80;;
32786;SDS011;19139;49.372;8.580;2023-12-28T03:10:14;1.77;;;1.63;;
32786;SDS011;19139;49.372;8.580;2023-12-28T03:12:41;1.73;;;1.50;;
32786;SDS011;19139;49.372;8.580;2023-12-28T03:15:08;1.70;;;1.50;;
32786;SDS011;19139;49.372;8.580;2023-12-28T03:17:35;2.17;;;1.87;;
32786;SDS011;19139;49.372;8.580;2023-12-28T03:20:03;1.53;;;1.43;;
32786;SDS011;19139;49.372;8.580;2023-12-28T03:22:31;1.93;;;1.73;;
32786;SDS011;19139;49.372;8.580;2023-12-28T03:24:58;1.83;;;1.67;;
32786;SDS011;19139;49.372;8.580;2023-12-28T03:27:25;2.10;;;1.90;;
32786;SDS011;19139;49.372;8.580;2023-12-28T03:29:52;1.80;;;1.40;;
32786;SDS011;19139;49.372;8.580;2023-12-28T03:32:18;2.20;;;1.73;;
32786;SDS011;19139;49.372;8.580;2023-12-28T03:34:45;1.63;;;1.53;;
32786;SDS011;19139;49.372;8.580;2023-12-28T03:37:12;2.07;;;1.70;;
32786;SDS011;19139;49.372;8.580;2023-12-28T03:39:38;2.37;;;1.57;;
32786;SDS011;19139;49.372;8.580;2023-12-28T03:42:05;1.97;;;1.77;;
32786;SDS011;19139;49.372;8.580;2023-12-28T03:44:32;2.37;;;1.90;;
32786;SDS011;19139;49.372;8.580;2023-12-28T03:46:59;2.33;;;1.73;;
32786;SDS011;19139;49.372;8.580;2023-12-28T03:49:26;2.43;;;2.23;;
32786;SDS011;19139;49.372;8.580;2023-12-28T03:51:53;2.37;;;1.77;;
32786;SDS011;19139;49.372;8.580;2023-12-28T03:54:20;2.27;;;1.70;;
32786;SDS011;19139;49.372;8.580;2023-12-28T03:56:47;2.03;;;1.83;;
32786;SDS011;19139;49.372;8.580;2023-12-28T03:59:13;1.70;;;1.50;;
32786;SDS011;19139;49.372;8.580;2023-12-28T04:01:44;1.93;;;1.60;;
32786;SDS011;19139;49.372;8.580;2023-12-28T04:04:11;1.60;;;1.50;;
32786;SDS011;19139;49.372;8.580;2023-12-28T04:06:38;2.27;;;1.50;;
32786;SDS011;19139;49.372;8.580;2023-12-28T04:09:05;2.67;;;2.00;;
32786;SDS011;19139;49.372;8.580;2023-12-28T04:11:32;2.20;;;1.70;;
32786;SDS011;19139;49.372;8.580;2023-12-28T04:13:58;2.47;;;2.03;;
32786;SDS011;19139;49.372;8.580;2023-12-28T04:16:25;1.97;;;1.67;;
32786;SDS011;19139;49.372;8.580;2023-12-28T04:18:52;2.00;;;1.53;;
32786;SDS011;19139;49.372;8.580;2023-12-28T04:21:19;2.07;;;1.87;;
32786;SDS011;19139;49.372;8.580;2023-12-28T04:23:46;3.33;;;1.60;;
32786;SDS011;19139;49.372;8.580;2023-12-28T04:26:13;1.70;;;1.60;;
32786;SDS011;19139;49.372;8.580;2023-12-28T04:28:39;1.70;;;1.60;;
32786;SDS011;19139;49.372;8.580;2023-12-28T04:31:06;2.00;;;1.80;;
32786;SDS011;19139;49.372;8.580;2023-12-28T04:33:34;1.50;;;1.40;;
32786;SDS011;19139;49.372;8.580;2023-12-28T04:36:01;1.90;;;1.73;;
32786;SDS011;19139;49.372;8.580;2023-12-28T04:38:30;2.13;;;1.93;;
32786;SDS011;19139;49.372;8.580;2023-12-28T04:40:58;1.87;;;1.63;;
32786;SDS011;19139;49.372;8.580;2023-12-28T04:43:25;1.77;;;1.57;;
32786;SDS011;19139;49.372;8.580;2023-12-28T04:45:52;2.13;;;1.70;;
32786;SDS011;19139;49.372;8.580;2023-12-28T04:48:19;1.63;;;1.50;;
32786;SDS011;19139;49.372;8.580;2023-12-28T04:50:47;2.27;;;1.57;;
32786;SDS011;19139;49.372;8.580;2023-12-28T04:53:14;1.77;;;1.60;;
32786;SDS011;19139;49.372;8.580;2023-12-28T04:55:41;1.60;;;1.50;;
32786;SDS011;19139;49.372;8.580;2023-12-28T04:58:09;1.60;;;1.50;;
32786;SDS011;19139;49.372;8.580;2023-12-28T05:00:38;1.87;;;1.70;;
32786;SDS011;19139;49.372;8.580;2023-12-28T05:03:05;1.50;;;1.30;;
32786;SDS011;19139;49.372;8.580;2023-12-28T05:05:32;1.70;;;1.40;;
32786;SDS011;19139;49.372;8.580;2023-12-28T05:07:59;2.00;;;1.80;;
32786;SDS011;19139;49.372;8.580;2023-12-28T05:10:26;1.43;;;1.33;;
32786;SDS011;19139;49.372;8.580;2023-12-28T05:12:53;1.33;;;1.23;;
32786;SDS011;19139;49.372;8.580;2023-12-28T05:15:27;2.07;;;1.70;;
32786;SDS011;19139;49.372;8.580;2023-12-28T05:17:54;2.00;;;1.80;;
32786;SDS011;19139;49.372;8.580;2023-12-28T05:20:22;1.90;;;1.40;;
32786;SDS011;19139;49.372;8.580;2023-12-28T05:22:48;2.23;;;1.50;;
32786;SDS011;19139;49.372;8.580;2023-12-28T05:25:16;2.10;;;1.90;;
32786;SDS011;19139;49.372;8.580;2023-12-28T05:27:42;1.80;;;1.50;;
32786;SDS011;19139;49.372;8.580;2023-12-28T05:30:09;2.07;;;1.70;;
32786;SDS011;19139;49.372;8.580;2023-12-28T05:32:37;2.40;;;1.80;;
32786;SDS011;19139;49.372;8.580;2023-12-28T05:35:05;1.87;;;1.60;;
32786;SDS011;19139;49.372;8.580;2023-12-28T05:37:32;2.03;;;1.80;;
32786;SDS011;19139;49.372;8.580;2023-12-28T05:39:58;1.60;;;1.50;;
32786;SDS011;19139;49.372;8.580;2023-12-28T05:42:25;1.53;;;1.37;;
32786;SDS011;19139;49.372;8.580;2023-12-28T05:44:52;1.87;;;1.57;;
32786;SDS011;19139;49.372;8.580;2023-12-28T05:47:19;1.50;;;1.40;;
32786;SDS011;19139;49.372;8.580;2023-12-28T05:49:46;1.70;;;1.60;;
32786;SDS011;19139;49.372;8.580;2023-12-28T05:52:13;2.80;;;1.60;;
32786;SDS011;19139;49.372;8.580;2023-12-28T05:54:42;2.17;;;1.70;;
32786;SDS011;19139;49.372;8.580;2023-12-28T05:57:10;2.53;;;1.80;;
32786;SDS011;19139;49.372;8.580;2023-12-28T05:59:37;1.37;;;1.27;;
32786;SDS011;19139;49.372;8.580;2023-12-28T06:02:05;1.83;;;1.60;;
32786;SDS011;19139;49.372;8.580;2023-12-28T06:04:32;1.43;;;1.33;;
32786;SDS011;19139;49.372;8.580;2023-12-28T06:07:00;1.60;;;1.50;;
32786;SDS011;19139;49.372;8.580;2023-12-28T06:09:28;1.77;;;1.23;;
32786;SDS011;19139;49.372;8.580;2023-12-28T06:11:55;1.40;;;1.30;;
32786;SDS011;19139;49.372;8.580;2023-12-28T06:14:21;1.60;;;1.40;;
32786;SDS011;19139;49.372;8.580;2023-12-28T06:16:48;1.73;;;1.63;;
32786;SDS011;19139;49.372;8.580;2023-12-28T06:19:15;1.50;;;1.40;;
32786;SDS011;19139;49.372;8.580;2023-12-28T06:21:42;2.43;;;1.50;;
32786;SDS011;19139;49.372;8.580;2023-12-28T06:24:08;1.20;;;1.10;;
32786;SDS011;19139;49.372;8.580;2023-12-28T06:26:38;1.70;;;1.60;;
32786;SDS011;19139;49.372;8.580;2023-12-28T06:29:09;1.77;;;1.50;;
32786;SDS011;19139;49.372;8.580;2023-12-28T06:31:36;1.23;;;1.13;;
32786;SDS011;19139;49.372;8.580;2023-12-28T06:34:04;2.10;;;1.37;;
32786;SDS011;19139;49.372;8.580;2023-12-28T06:36:32;1.50;;;1.40;;
32786;SDS011;19139;49.372;8.580;2023-12-28T06:38:59;2.17;;;1.30;;
32786;SDS011;19139;49.372;8.580;2023-12-28T06:41:26;1.60;;;1.50;;
32786;SDS011;19139;49.372;8.580;2023-12-28T06:43:53;1.60;;;1.50;;
32786;SDS011;19139;49.372;8.580;2023-12-28T06:46:19;2.23;;;1.30;;
32786;SDS011;19139;49.372;8.580;2023-12-28T06:48:46;1.50;;;1.30;;
32786;SDS011;19139;49.372;8.580;2023-12-28T06:51:19;1.93;;;1.43;;
32786;SDS011;19139;49.372;8.580;2023-12-28T06:53:48;1.90;;;1.20;;
32786;SDS011;19139;49.372;8.580;2023-12-28T06:56:15;1.60;;;1.23;;
32786;SDS011;19139;49.372;8.580;2023-12-28T06:58:42;1.20;;;1.10;;
32786;SDS011;19139;49.372;8.580;2023-12-28T07:01:09;1.43;;;1.33;;
32786;SDS011;19139;49.372;8.580;2023-12-28T07:03:37;1.40;;;1.20;;
32786;SDS011;19139;49.372;8.580;2023-12-28T07:06:04;1.50;;;1.40;;
32786;SDS011;19139;49.372;8.580;2023-12-28T07:08:31;1.97;;;1.47;;
32786;SDS011;19139;49.372;8.580;2023-12-28T07:11:01;1.27;;;1.03;;
32786;SDS011;19139;49.372;8.580;2023-12-28T07:13:29;1.67;;;1.40;;
32786;SDS011;19139;49.372;8.580;2023-12-28T07:15:56;1.90;;;1.53;;
32786;SDS011;19139;49.372;8.580;2023-12-28T07:18:26;1.77;;;1.33;;
32786;SDS011;19139;49.372;8.580;2023-12-28T07:20:53;1.43;;;1.33;;
32786;SDS011;19139;49.372;8.580;2023-12-28T07:23:20;1.70;;;1.50;;
32786;SDS011;19139;49.372;8.580;2023-12-28T07:25:47;1.60;;;1.43;;
32786;SDS011;19139;49.372;8.580;2023-12-28T07:28:14;1.73;;;1.27;;
32786;SDS011;19139;49.372;8.580;2023-12-28T07:30:40;1.37;;;1.10;;
32786;SDS011;19139;49.372;8.580;2023-12-28T07:33:07;1.50;;;1.30;;
32786;SDS011;19139;49.372;8.580;2023-12-28T07:35:34;1.50;;;1.40;;
32786;SDS011;19139;49.372;8.580;2023-12-28T07:38:01;1.43;;;1.27;;
32786;SDS011;19139;49.372;8.580;2023-12-28T07:40:28;1.50;;;1.40;;
32786;SDS011;19139;49.372;8.580;2023-12-28T07:42:55;1.90;;;1.40;;
32786;SDS011;19139;49.372;8.580;2023-12-28T07:45:23;2.77;;;1.40;;
32786;SDS011;19139;49.372;8.580;2023-12-28T07:47:50;2.77;;;1.57;;
32786;SDS011;19139;49.372;8.580;2023-12-28T07:50:18;2.80;;;1.47;;
32786;SDS011;19139;49.372;8.580;2023-12-28T07:52:46;3.10;;;1.73;;
32786;SDS011;19139;49.372;8.580;2023-12-28T07:55:13;3.30;;;1.30;;
32786;SDS011;19139;49.372;8.580;2023-12-28T07:57:41;1.90;;;1.57;;
32786;SDS011;19139;49.372;8.580;2023-12-28T08:00:08;1.80;;;1.47;;
32786;SDS011;19139;49.372;8.580;2023-12-28T08:02:35;1.57;;;1.30;;
32786;SDS011;19139;49.372;8.580;2023-12-28T08:05:02;2.80;;;1.30;;
32786;SDS011;19139;49.372;8.580;2023-12-28T08:07:30;1.93;;;1.00;;
32786;SDS011;19139;49.372;8.580;2023-12-28T08:09:56;1.43;;;1.03;;
32786;SDS011;19139;49.372;8.580;2023-12-28T08:12:23;2.70;;;1.13;;
32786;SDS011;19139;49.372;8.580;2023-12-28T08:14:54;1.63;;;1.50;;
32786;SDS011;19139;49.372;8.580;2023-12-28T08:17:21;1.63;;;1.40;;
32786;SDS011;19139;49.372;8.580;2023-12-28T08:19:48;2.30;;;1.53;;
32786;SDS011;19139;49.372;8.580;2023-12-28T08:22:15;2.03;;;1.50;;
32786;SDS011;19139;49.372;8.580;2023-12-28T08:24:42;2.30;;;2.07;;
32786;SDS011;19139;49.372;8.580;2023-12-28T08:27:08;1.23;;;1.13;;
32786;SDS011;19139;49.372;8.580;2023-12-28T08:29:35;1.70;;;1.40;;
32786;SDS011;19139;49.372;8.580;2023-12-28T08:32:02;2.77;;;1.13;;
32786;SDS011;19139;49.372;8.580;2023-12-28T08:34:29;1.90;;;1.30;;
32786;SDS011;19139;49.372;8.580;2023-12-28T08:36:56;1.80;;;1.43;;
32786;SDS011;19139;49.372;8.580;2023-12-28T08:39:23;1.27;;;1.07;;
32786;SDS011;19139;49.372;8.580;2023-12-28T08:41:49;1.20;;;1.07;;
32786;SDS011;19139;49.372;8.580;2023-12-28T08:44:16;1.77;;;1.20;;
32786;SDS011;19139;49.372;8.580;2023-12-28T08:46:43;1.37;;;1.20;;
32786;SDS011;19139;49.372;8.580;2023-12-28T08:49:09;2.53;;;1.50;;
32786;SDS011;19139;49.372;8.580;2023-12-28T08:51:36;1.80;;;1.40;;
32786;SDS011;19139;49.372;8.580;2023-12-28T08:54:06;1.00;;;0.90;;
32786;SDS011;19139;49.372;8.580;2023-12-28T08:56:32;1.63;;;1.47;;
32786;SDS011;19139;49.372;8.580;2023-12-28T08:58:59;1.70;;;1.30;;
32786;SDS011;19139;49.372;8.580;2023-12-28T09:01:26;1.87;;;1.37;;
32786;SDS011;19139;49.372;8.580;2023-12-28T09:03:55;2.17;;;1.33;;
32786;SDS011;19139;49.372;8.580;2023-12-28T09:06:22;2.80;;;1.40;;
32786;SDS011;19139;49.372;8.580;2023-12-28T09:08:49;2.70;;;1.33;;
32786;SDS011;19139;49.372;8.580;2023-12-28T09:11:17;1.90;;;1.70;;
32786;SDS011;19139;49.372;8.580;2023-12-28T09:13:44;2.07;;;1.50;;
32786;SDS011;19139;49.372;8.580;2023-12-28T09:16:12;1.43;;;1.30;;
32786;SDS011;19139;49.372;8.580;2023-12-28T09:18:40;1.70;;;1.03;;
32786;SDS011;19139;49.372;8.580;2023-12-28T09:21:08;1.93;;;1.47;;
32786;SDS011;19139;49.372;8.580;2023-12-28T09:23:35;2.33;;;1.20;;
32786;SDS011;19139;49.372;8.580;2023-12-28T09:26:03;1.73;;;1.40;;
32786;SDS011;19139;49.372;8.580;2023-12-28T09:28:31;1.60;;;1.43;;
32786;SDS011;19139;49.372;8.580;2023-12-28T09:30:59;1.57;;;1.17;;
32786;SDS011;19139;49.372;8.580;2023-12-28T09:33:27;1.50;;;1.10;;
32786;SDS011;19139;49.372;8.580;2023-12-28T09:35:54;2.27;;;1.40;;
32786;SDS011;19139;49.372;8.580;2023-12-28T09:38:20;1.27;;;1.03;;
32786;SDS011;19139;49.372;8.580;2023-12-28T09:40:50;4.40;;;1.73;;
32786;SDS011;19139;49.372;8.580;2023-12-28T09:43:23;1.67;;;1.03;;
32786;SDS011;19139;49.372;8.580;2023-12-28T09:45:55;1.37;;;0.87;;
32786;SDS011;19139;49.372;8.580;2023-12-28T09:48:23;2.13;;;1.50;;
32786;SDS011;19139;49.372;8.580;2023-12-28T09:50:53;1.67;;;1.00;;
32786;SDS011;19139;49.372;8.580;2023-12-28T09:53:25;1.73;;;1.27;;
32786;SDS011;19139;49.372;8.580;2023-12-28T09:55:52;2.20;;;1.60;;
32786;SDS011;19139;49.372;8.580;2023-12-28T09:58:20;2.57;;;1.30;;
32786;SDS011;19139;49.372;8.580;2023-12-28T10:00:48;1.57;;;1.10;;
32786;SDS011;19139;49.372;8.580;2023-12-28T10:03:15;1.30;;;1.10;;
32786;SDS011;19139;49.372;8.580;2023-12-28T10:05:44;1.63;;;1.30;;
32786;SDS011;19139;49.372;8.580;2023-12-28T10:08:11;1.93;;;1.20;;
32786;SDS011;19139;49.372;8.580;2023-12-28T10:10:40;1.37;;;1.20;;
32786;SDS011;19139;49.372;8.580;2023-12-28T10:13:07;2.43;;;1.20;;
32786;SDS011;19139;49.372;8.580;2023-12-28T10:15:35;1.93;;;1.30;;
32786;SDS011;19139;49.372;8.580;2023-12-28T10:18:02;2.30;;;1.10;;
32786;SDS011;19139;49.372;8.580;2023-12-28T10:20:30;1.60;;;1.20;;
32786;SDS011;19139;49.372;8.580;2023-12-28T10:22:58;1.23;;;1.13;;
32786;SDS011;19139;49.372;8.580;2023-12-28T10:25:26;1.40;;;1.23;;
32786;SDS011;19139;49.372;8.580;2023-12-28T10:27:53;1.47;;;1.37;;
32786;SDS011;19139;49.372;8.580;2023-12-28T10:30:20;1.40;;;1.17;;
32786;SDS011;19139;49.372;8.580;2023-12-28T10:32:48;1.53;;;1.10;;
32786;SDS011;19139;49.372;8.580;2023-12-28T10:35:15;1.77;;;1.60;;
32786;SDS011;19139;49.372;8.580;2023-12-28T10:37:43;1.93;;;1.40;;
32786;SDS011;19139;49.372;8.580;2023-12-28T10:40:14;3.53;;;1.17;;
32786;SDS011;19139;49.372;8.580;2023-12-28T10:42:51;1.90;;;1.20;;
32786;SDS011;19139;49.372;8.580;2023-12-28T10:45:31;2.00;;;1.43;;
32786;SDS011;19139;49.372;8.580;2023-12-28T10:50:37;1.53;;;1.20;;
32786;SDS011;19139;49.372;8.580;2023-12-28T10:58:48;1.97;;;1.30;;
32786;SDS011;19139;49.372;8.580;2023-12-28T11:01:27;1.47;;;1.07;;
32786;SDS011;19139;49.372;8.580;2023-12-28T11:03:59;1.77;;;1.50;;
32786;SDS011;19139;49.372;8.580;2023-12-28T11:06:31;1.50;;;1.13;;
32786;SDS011;19139;49.372;8.580;2023-12-28T11:08:59;1.97;;;1.30;;
32786;SDS011;19139;49.372;8.580;2023-12-28T11:11:27;2.00;;;1.37;;
32786;SDS011;19139;49.372;8.580;2023-12-28T11:13:54;3.40;;;1.30;;
32786;SDS011;19139;49.372;8.580;2023-12-28T11:16:22;2.20;;;1.40;;
32786;SDS011;19139;49.372;8.580;2023-12-28T11:18:50;2.20;;;1.37;;
32786;SDS011;19139;49.372;8.580;2023-12-28T11:21:17;1.57;;;1.47;;
32786;SDS011;19139;49.372;8.580;2023-12-28T11:23:46;2.17;;;1.43;;
32786;SDS011;19139;49.372;8.580;2023-12-28T11:26:17;2.93;;;1.70;;
32786;SDS011;19139;49.372;8.580;2023-12-28T11:28:45;1.90;;;1.43;;
32786;SDS011;19139;49.372;8.580;2023-12-28T11:31:18;2.73;;;1.57;;
32786;SDS011;19139;49.372;8.580;2023-12-28T11:33:50;1.60;;;1.50;;
32786;SDS011;19139;49.372;8.580;2023-12-28T11:36:52;2.90;;;2.37;;
32786;SDS011;19139;49.372;8.580;2023-12-28T11:39:20;1.97;;;1.23;;
32786;SDS011;19139;49.372;8.580;2023-12-28T11:42:04;2.20;;;1.10;;
32786;SDS011;19139;49.372;8.580;2023-12-28T11:44:39;1.83;;;1.43;;
32786;SDS011;19139;49.372;8.580;2023-12-28T11:47:16;2.73;;;1.60;;
32786;SDS011;19139;49.372;8.580;2023-12-28T11:49:50;1.40;;;1.17;;
32786;SDS011;19139;49.372;8.580;2023-12-28T11:54:49;1.27;;;1.07;;
32786;SDS011;19139;49.372;8.580;2023-12-28T11:57:16;1.23;;;1.07;;
32786;SDS011;19139;49.372;8.580;2023-12-28T11:59:43;1.60;;;1.23;;
32786;SDS011;19139;49.372;8.580;2023-12-28T12:02:10;1.70;;;1.33;;
32786;SDS011;19139;49.372;8.580;2023-12-28T12:04:37;1.77;;;1.40;;
32786;SDS011;19139;49.372;8.580;2023-12-28T12:07:04;1.77;;;1.63;;
32786;SDS011;19139;49.372;8.580;2023-12-28T12:09:31;1.70;;;1.00;;
32786;SDS011;19139;49.372;8.580;2023-12-28T12:12:01;1.07;;;0.97;;
32786;SDS011;19139;49.372;8.580;2023-12-28T12:14:29;1.30;;;1.20;;
32786;SDS011;19139;49.372;8.580;2023-12-28T12:16:56;1.53;;;1.20;;
32786;SDS011;19139;49.372;8.580;2023-12-28T12:19:24;1.40;;;1.30;;
32786;SDS011;19139;49.372;8.580;2023-12-28T12:21:52;1.47;;;1.20;;
32786;SDS011;19139;49.372;8.580;2023-12-28T12:24:20;1.47;;;1.17;;
32786;SDS011;19139;49.372;8.580;2023-12-28T12:26:47;2.13;;;1.00;;
32786;SDS011;19139;49.372;8.580;2023-12-28T12:29:14;1.33;;;1.20;;
32786;SDS011;19139;49.372;8.580;2023-12-28T12:31:41;2.03;;;1.40;;
32786;SDS011;19139;49.372;8.580;2023-12-28T12:34:09;1.37;;;1.27;;
32786;SDS011;19139;49.372;8.580;2023-12-28T12:36:37;1.03;;;0.90;;
32786;SDS011;19139;49.372;8.580;2023-12-28T12:39:04;2.27;;;1.40;;
32786;SDS011;19139;49.372;8.580;2023-12-28T12:41:34;1.47;;;1.30;;
32786;SDS011;19139;49.372;8.580;2023-12-28T12:44:01;1.30;;;1.20;;
32786;SDS011;19139;49.372;8.580;2023-12-28T12:46:28;3.43;;;1.30;;
32786;SDS011;19139;49.372;8.580;2023-12-28T12:51:27;1.30;;;1.20;;
32786;SDS011;19139;49.372;8.580;2023-12-28T12:53:58;1.33;;;1.23;;
32786;SDS011;19139;49.372;8.580;2023-12-28T12:56:25;1.23;;;0.90;;
32786;SDS011;19139;49.372;8.580;2023-12-28T12:58:56;1.10;;;1.00;;
32786;SDS011;19139;49.372;8.580;2023-12-28T13:01:24;1.63;;;1.10;;
32786;SDS011;19139;49.372;8.580;2023-12-28T13:03:51;1.13;;;1.00;;
32786;SDS011;19139;49.372;8.580;2023-12-28T13:06:18;1.30;;;1.10;;
32786;SDS011;19139;49.372;8.580;2023-12-28T13:08:49;1.50;;;1.20;;
32786;SDS011;19139;49.372;8.580;2023-12-28T13:11:15;1.37;;;1.20;;
32786;SDS011;19139;49.372;8.580;2023-12-28T13:13:42;1.63;;;1.20;;
32786;SDS011;19139;49.372;8.580;2023-12-28T13:16:09;1.30;;;1.20;;
32786;SDS011;19139;49.372;8.580;2023-12-28T13:18:36;1.43;;;1.20;;
32786;SDS011;19139;49.372;8.580;2023-12-28T13:21:02;2.00;;;1.83;;
32786;SDS011;19139;49.372;8.580;2023-12-28T13:23:29;1.70;;;1.60;;
32786;SDS011;19139;49.372;8.580;2023-12-28T13:25:56;1.37;;;1.27;;
32786;SDS011;19139;49.372;8.580;2023-12-28T13:28:22;2.10;;;1.20;;
32786;SDS011;19139;49.372;8.580;2023-12-28T13:30:49;1.80;;;1.10;;
32786;SDS011;19139;49.372;8.580;2023-12-28T13:33:22;1.67;;;1.20;;
32786;SDS011;19139;49.372;8.580;2023-12-28T13:35:50;1.67;;;1.20;;
32786;SDS011;19139;49.372;8.580;2023-12-28T13:38:17;1.83;;;1.50;;
32786;SDS011;19139;49.372;8.580;2023-12-28T13:40:43;2.40;;;1.23;;
32786;SDS011;19139;49.372;8.580;2023-12-28T13:43:10;3.13;;;1.40;;
32786;SDS011;19139;49.372;8.580;2023-12-28T13:45:37;2.40;;;1.40;;
32786;SDS011;19139;49.372;8.580;2023-12-28T13:48:04;2.33;;;1.20;;
32786;SDS011;19139;49.372;8.580;2023-12-28T13:50:31;1.73;;;1.33;;
32786;SDS011;19139;49.372;8.580;2023-12-28T13:52:58;3.10;;;1.60;;
32786;SDS011;19139;49.372;8.580;2023-12-28T13:55:25;1.50;;;1.20;;
32786;SDS011;19139;49.372;8.580;2023-12-28T13:57:51;2.23;;;1.20;;
32786;SDS011;19139;49.372;8.580;2023-12-28T14:00:18;1.50;;;1.40;;
32786;SDS011;19139;49.372;8.580;2023-12-28T14:02:45;2.30;;;1.30;;
32786;SDS011;19139;49.372;8.580;2023-12-28T14:05:12;1.83;;;1.33;;
32786;SDS011;19139;49.372;8.580;2023-12-28T14:07:40;1.97;;;1.40;;
32786;SDS011;19139;49.372;8.580;2023-12-28T14:10:06;1.40;;;1.30;;
32786;SDS011;19139;49.372;8.580;2023-12-28T14:12:33;1.80;;;1.17;;
32786;SDS011;19139;49.372;8.580;2023-12-28T14:15:00;2.00;;;1.50;;
32786;SDS011;19139;49.372;8.580;2023-12-28T14:17:27;1.47;;;1.17;;
32786;SDS011;19139;49.372;8.580;2023-12-28T14:19:53;1.87;;;1.13;;
32786;SDS011;19139;49.372;8.580;2023-12-28T14:22:20;1.40;;;1.30;;
32786;SDS011;19139;49.372;8.580;2023-12-28T14:24:48;1.77;;;1.10;;
32786;SDS011;19139;49.372;8.580;2023-12-28T14:27:15;1.90;;;1.57;;
32786;SDS011;19139;49.372;8.580;2023-12-28T14:29:42;2.13;;;1.40;;
32786;SDS011;19139;49.372;8.580;2023-12-28T14:32:09;3.37;;;1.27;;
32786;SDS011;19139;49.372;8.580;2023-12-28T14:34:36;1.33;;;1.20;;
32786;SDS011;19139;49.372;8.580;2023-12-28T14:37:03;2.50;;;1.73;;
32786;SDS011;19139;49.372;8.580;2023-12-28T14:39:30;1.33;;;1.00;;
32786;SDS011;19139;49.372;8.580;2023-12-28T14:41:57;2.63;;;1.20;;
32786;SDS011;19139;49.372;8.580;2023-12-28T14:44:29;1.40;;;1.30;;
32786;SDS011;19139;49.372;8.580;2023-12-28T14:46:56;1.40;;;1.10;;
32786;SDS011;19139;49.372;8.580;2023-12-28T14:49:23;1.20;;;1.10;;
32786;SDS011;19139;49.372;8.580;2023-12-28T14:51:50;1.20;;;1.10;;
32786;SDS011;19139;49.372;8.580;2023-12-28T14:54:16;1.40;;;1.20;;
32786;SDS011;19139;49.372;8.580;2023-12-28T14:56:43;1.37;;;0.80;;
32786;SDS011;19139;49.372;8.580;2023-12-28T14:59:20;1.93;;;1.20;;
32786;SDS011;19139;49.372;8.580;2023-12-28T15:01:48;1.43;;;1.27;;
32786;SDS011;19139;49.372;8.580;2023-12-28T15:04:15;1.43;;;1.10;;
32786;SDS011;19139;49.372;8.580;2023-12-28T15:06:42;1.83;;;1.37;;
32786;SDS011;19139;49.372;8.580;2023-12-28T15:09:09;0.80;;;0.80;;